Time;durP1;ratioP1;P1;durP2;ratioP2;P2;SDS_P1;SDS_P2;PMS_P1;PMS_P2;Temp;Humidity;BMP_temperature;BMP_pressure;BME280_temperature;BME280_humidity;BME280_pressure;Samples;Min_cycle;Max_cycle;Signal;HPM_P1;HPM_P2
2022/01/30 00:01:15;;;;;;;11.43;3.93;;;9.50;99.90;;;;;;5250999;28;20045;-29
2022/01/30 00:03:46;;;;;;;11.33;7.20;;;9.50;99.90;;;;;;5250722;28;20486;-38
2022/01/30 00:06:17;;;;;;;8.90;2.73;;;9.40;99.90;;;;;;5251112;28;20122;-28
2022/01/30 00:08:48;;;;;;;10.27;4.37;;;9.40;99.90;;;;;;5251081;28;20068;-35
2022/01/30 00:11:23;;;;;;;5.03;2.70;;;9.40;99.90;;;;;;5250688;28;20475;-39
2022/01/30 00:13:55;;;;;;;7.60;3.47;;;9.40;99.90;;;;;;5250934;28;20060;-30
2022/01/30 00:16:31;;;;;;;5.80;2.30;;;9.40;99.90;;;;;;5250704;28;20492;-31
2022/01/30 00:19:13;;;;;;;10.17;3.50;;;9.40;99.90;;;;;;5250684;28;20383;-33
2022/01/30 00:21:49;;;;;;;7.53;2.67;;;9.40;99.90;;;;;;5251108;28;20052;-38
2022/01/30 00:24:32;;;;;;;6.10;2.70;;;9.30;99.90;;;;;;5250547;28;20390;-37
2022/01/30 00:27:03;;;;;;;6.27;2.40;;;9.30;99.90;;;;;;5251074;28;20048;-32
2022/01/30 00:29:34;;;;;;;6.37;3.03;;;9.30;99.90;;;;;;5249266;28;20094;-32
2022/01/30 00:32:06;;;;;;;10.37;4.37;;;9.30;99.90;;;;;;5250135;28;20056;-39
2022/01/30 00:34:37;;;;;;;14.47;5.70;;;9.30;99.90;;;;;;5248763;28;20052;-33
2022/01/30 00:37:08;;;;;;;9.90;5.70;;;9.30;99.90;;;;;;5250501;28;20375;-39
2022/01/30 00:39:39;;;;;;;11.73;6.23;;;9.30;99.90;;;;;;5249935;28;20076;-35
2022/01/30 00:42:10;;;;;;;13.33;7.27;;;9.30;99.90;;;;;;5248936;28;20064;-38
2022/01/30 00:44:41;;;;;;;14.63;7.13;;;9.20;99.90;;;;;;5237540;28;20471;-28
2022/01/30 00:47:13;;;;;;;15.97;9.53;;;9.30;99.90;;;;;;5228693;28;20048;-35
2022/01/30 00:50:03;;;;;;;13.70;5.50;;;9.30;99.90;;;;;;5247543;28;20048;-39
2022/01/30 00:52:34;;;;;;;13.43;5.93;;;9.20;99.90;;;;;;5247451;28;20064;-29
2022/01/30 00:55:05;;;;;;;13.43;5.33;;;9.20;99.90;;;;;;5247344;28;20282;-33
2022/01/30 00:57:36;;;;;;;15.13;6.83;;;9.20;99.90;;;;;;5214105;28;20197;-30
2022/01/30 01:00:08;;;;;;;9.30;4.00;;;9.20;99.90;;;;;;5247358;28;20414;-29
2022/01/30 01:02:39;;;;;;;20.90;8.57;;;9.20;99.90;;;;;;5247352;28;20048;-34
2022/01/30 01:05:10;;;;;;;11.10;6.47;;;9.20;99.90;;;;;;5247632;28;20107;-37
2022/01/30 01:07:46;;;;;;;9.93;3.97;;;9.20;99.90;;;;;;5247306;28;20513;-34
2022/01/30 01:10:29;;;;;;;10.90;4.07;;;9.20;99.90;;;;;;5247174;28;20537;-38
2022/01/30 01:24:07;;;;;;;8.23;2.93;;;9.00;99.90;;;;;;5227616;28;20140;-34
2022/01/30 01:26:38;;;;;;;5.93;3.17;;;9.00;99.90;;;;;;5228324;28;20060;-39
2022/01/30 01:29:09;;;;;;;8.57;3.10;;;9.00;99.90;;;;;;5227359;28;20483;-34
2022/01/30 01:31:40;;;;;;;8.53;3.97;;;9.00;99.90;;;;;;5228304;28;20056;-30
2022/01/30 01:36:45;;;;;;;8.70;4.93;;;8.90;99.90;;;;;;5228225;28;20065;-35
2022/01/30 01:39:16;;;;;;;6.37;2.70;;;8.90;99.90;;;;;;5228343;28;20065;-33
2022/01/30 01:41:47;;;;;;;7.87;2.87;;;8.90;99.90;;;;;;5228130;28;20056;-36
2022/01/30 01:44:23;;;;;;;9.00;3.43;;;8.90;99.90;;;;;;5228083;28;20411;-33
2022/01/30 01:46:54;;;;;;;8.57;4.10;;;8.90;99.90;;;;;;5211096;28;20040;-30
2022/01/30 01:49:29;;;;;;;7.40;3.17;;;8.90;99.90;;;;;;5228150;28;20051;-36
2022/01/30 01:52:23;;;;;;;7.67;3.03;;;8.90;99.90;;;;;;5228431;28;20057;-32
2022/01/30 01:54:56;;;;;;;10.87;4.30;;;8.80;99.90;;;;;;5228091;28;20045;-37
2022/01/30 01:57:28;;;;;;;6.00;2.72;;;8.80;99.90;;;;;;5228080;28;20530;-32
2022/01/30 01:59:59;;;;;;;7.20;2.83;;;8.90;99.90;;;;;;5228008;28;20081;-31
2022/01/30 02:02:30;;;;;;;4.70;2.97;;;8.80;99.90;;;;;;5227875;28;20506;-34
2022/01/30 02:05:03;;;;;;;9.37;3.20;;;8.80;99.90;;;;;;5226571;28;20072;-37
2022/01/30 02:10:12;;;;;;;5.50;2.03;;;8.80;99.90;;;;;;5227912;28;20065;-30
2022/01/30 02:12:49;;;;;;;12.73;5.00;;;8.80;99.90;;;;;;5228232;28;20041;-32
2022/01/30 02:24:03;;;;;;;7.80;3.27;;;8.80;99.90;;;;;;5230170;28;20418;-38
2022/01/30 02:26:36;;;;;;;7.10;3.00;;;8.80;99.90;;;;;;5229721;28;20053;-30
2022/01/30 02:29:07;;;;;;;11.70;3.92;;;8.80;99.90;;;;;;5229781;28;20057;-28
2022/01/30 02:31:40;;;;;;;11.37;4.30;;;8.80;99.90;;;;;;5212990;28;20045;-35
2022/01/30 02:34:11;;;;;;;9.80;3.28;;;8.80;99.90;;;;;;5229882;28;20053;-34
2022/01/30 02:36:48;;;;;;;7.80;3.53;;;8.80;99.90;;;;;;5213266;28;20056;-41
2022/01/30 02:39:19;;;;;;;8.60;3.63;;;8.80;99.80;;;;;;5213360;28;20045;-33
2022/01/30 02:41:51;;;;;;;7.53;4.27;;;8.80;99.70;;;;;;5230128;28;20053;-34
2022/01/30 02:47:00;;;;;;;10.00;3.87;;;8.80;99.80;;;;;;5229278;28;20060;-35
2022/01/30 02:49:45;;;;;;;9.20;4.60;;;8.80;99.70;;;;;;5229510;28;20056;-30
2022/01/30 02:52:16;;;;;;;12.03;4.47;;;8.80;99.50;;;;;;5229077;28;20057;-38
2022/01/30 02:54:47;;;;;;;10.63;4.97;;;8.80;99.40;;;;;;5229472;28;20072;-37
2022/01/30 02:57:19;;;;;;;9.93;3.77;;;8.80;99.40;;;;;;5228984;28;20048;-37
2022/01/30 02:59:50;;;;;;;9.97;3.63;;;8.70;99.50;;;;;;5209066;28;20057;-38
2022/01/30 03:02:21;;;;;;;9.03;4.63;;;8.70;99.00;;;;;;5210447;28;20415;-35
2022/01/30 03:04:52;;;;;;;8.27;3.50;;;8.70;98.70;;;;;;5210728;28;20069;-33
2022/01/30 03:07:23;;;;;;;11.93;4.60;;;8.70;98.80;;;;;;5210704;28;20096;-39
2022/01/30 03:09:54;;;;;;;9.83;4.93;;;8.80;98.60;;;;;;5210451;28;20045;-34
2022/01/30 03:12:25;;;;;;;8.63;3.40;;;8.80;98.30;;;;;;5210773;28;20049;-34
2022/01/30 03:14:56;;;;;;;7.40;3.07;;;8.80;98.30;;;;;;5192195;28;20485;-31
2022/01/30 03:17:27;;;;;;;7.67;2.80;;;8.80;98.20;;;;;;5210199;28;20053;-34
2022/01/30 03:19:58;;;;;;;7.60;2.63;;;8.80;98.30;;;;;;5210426;28;20405;-38
2022/01/30 03:22:29;;;;;;;6.40;2.27;;;8.80;98.20;;;;;;5210196;28;20046;-36
2022/01/30 03:25:00;;;;;;;4.73;2.43;;;8.80;98.30;;;;;;5209095;28;20045;-31
2022/01/30 03:27:31;;;;;;;4.33;1.73;;;8.90;98.50;;;;;;5210301;28;20041;-38
2022/01/30 03:30:13;;;;;;;5.43;2.17;;;8.90;98.20;;;;;;5210454;28;20041;-34
2022/01/30 03:32:44;;;;;;;5.67;2.00;;;8.80;98.20;;;;;;5209256;28;20068;-36
2022/01/30 03:35:15;;;;;;;3.43;2.00;;;8.80;98.70;;;;;;5209727;28;20057;-42
2022/01/30 03:37:47;;;;;;;6.77;2.27;;;8.80;99.20;;;;;;5209915;28;20411;-37
2022/01/30 03:40:18;;;;;;;6.37;2.27;;;8.80;99.30;;;;;;5209453;28;20041;-30
2022/01/30 03:42:49;;;;;;;7.00;2.80;;;8.80;99.10;;;;;;5209788;28;20103;-37
2022/01/30 03:45:20;;;;;;;6.43;2.23;;;8.80;99.30;;;;;;5209980;28;20049;-36
2022/01/30 03:47:55;;;;;;;5.77;2.17;;;8.80;99.50;;;;;;5209806;28;20048;-33
2022/01/30 03:50:26;;;;;;;10.87;5.13;;;8.80;99.80;;;;;;5212271;28;20050;-33
2022/01/30 03:52:57;;;;;;;9.80;4.90;;;8.80;99.90;;;;;;5230934;28;20048;-32
2022/01/30 03:55:28;;;;;;;5.33;2.20;;;8.80;99.90;;;;;;5230122;28;20041;-40
2022/01/30 03:57:59;;;;;;;10.20;3.73;;;8.80;99.90;;;;;;5229906;28;20453;-35
2022/01/30 04:00:30;;;;;;;10.33;3.20;;;8.90;99.90;;;;;;5230205;28;20506;-37
2022/01/30 04:03:01;;;;;;;8.67;2.17;;;9.30;99.50;;;;;;5230278;28;20049;-36
2022/01/30 04:05:33;;;;;;;8.53;2.43;;;9.60;99.20;;;;;;5230392;28;20593;-34
2022/01/30 04:08:04;;;;;;;8.63;2.47;;;9.80;98.70;;;;;;5229946;28;20158;-34
2022/01/30 04:10:35;;;;;;;10.00;4.60;;;9.90;98.40;;;;;;5230118;28;20116;-36
2022/01/30 04:13:06;;;;;;;8.30;2.63;;;10.00;98.40;;;;;;5229824;28;20049;-34
2022/01/30 04:15:38;;;;;;;6.30;2.27;;;10.20;98.20;;;;;;5230243;28;20049;-29
2022/01/30 04:18:09;;;;;;;6.70;2.20;;;10.30;98.00;;;;;;5229961;28;20044;-34
2022/01/30 04:20:40;;;;;;;7.47;2.30;;;10.40;97.90;;;;;;5229136;28;20048;-32
2022/01/30 04:23:11;;;;;;;9.67;2.67;;;10.40;97.80;;;;;;5228747;28;20116;-38
2022/01/30 04:25:42;;;;;;;10.00;2.47;;;10.50;97.70;;;;;;5229375;28;20049;-36
2022/01/30 04:28:13;;;;;;;8.47;2.93;;;10.60;97.60;;;;;;5229953;28;20048;-36
2022/01/30 04:30:48;;;;;;;11.53;2.60;;;10.60;97.40;;;;;;5229540;28;20048;-36
2022/01/30 04:33:19;;;;;;;8.77;2.60;;;10.70;97.20;;;;;;5229466;28;20060;-35
2022/01/30 04:35:51;;;;;;;7.03;2.33;;;10.80;97.10;;;;;;5229608;28;20060;-33
2022/01/30 04:38:30;;;;;;;10.43;3.63;;;10.80;97.00;;;;;;5229820;28;20383;-35
2022/01/30 04:41:56;;;;;;;8.90;3.20;;;10.80;97.10;;;;;;5229665;28;20045;-34
2022/01/30 04:52:52;;;;;;;14.33;5.33;;;10.80;96.00;;;;;;5228988;28;20407;-35
2022/01/30 04:58:33;;;;;;;12.83;3.07;;;10.90;95.50;;;;;;5226996;28;20107;-33
2022/01/30 05:04:15;;;;;;;12.90;3.27;;;10.90;95.00;;;;;;5185634;28;20081;-30
2022/01/30 05:07:26;;;;;;;4.67;1.60;;;11.00;94.70;;;;;;5185408;28;20172;-38
2022/01/30 05:09:43;;;;;;;8.87;2.83;;;11.00;99.90;;;;;;5185504;28;20512;-32
2022/01/30 05:12:15;;;;;;;12.03;4.10;;;11.50;96.80;;;;;;5185397;28;20046;-36
2022/01/30 05:14:47;;;;;;;15.27;4.23;;;11.30;94.30;;;;;;5185366;28;20105;-38
2022/01/30 05:17:18;;;;;;;11.13;4.53;;;11.20;94.20;;;;;;5185504;28;20050;-34
2022/01/30 05:19:49;;;;;;;11.13;4.53;;;11.20;94.30;;;;;;5185420;28;20073;-34
2022/01/30 05:22:20;;;;;;;13.70;3.87;;;11.30;94.60;;;;;;5185387;28;20415;-32
2022/01/30 05:24:51;;;;;;;12.20;3.83;;;11.30;94.40;;;;;;5185151;28;20072;-32
2022/01/30 05:27:22;;;;;;;12.30;3.47;;;11.30;94.50;;;;;;5168979;28;20104;-32
2022/01/30 05:29:54;;;;;;;10.97;3.63;;;11.30;94.60;;;;;;5185274;28;20432;-32
2022/01/30 05:32:25;;;;;;;10.00;3.00;;;11.20;94.80;;;;;;5185318;28;20126;-37
2022/01/30 05:34:56;;;;;;;7.77;2.40;;;11.20;95.70;;;;;;5192875;28;20054;-33
2022/01/30 05:37:27;;;;;;;15.10;3.17;;;11.20;95.60;;;;;;5205512;28;20219;-36
2022/01/30 05:39:58;;;;;;;12.87;3.43;;;11.20;95.50;;;;;;5192216;28;20450;-33
2022/01/30 05:42:29;;;;;;;11.70;3.43;;;11.20;95.50;;;;;;5228212;28;20049;-31
2022/01/30 05:45:17;;;;;;;10.47;3.77;;;11.30;95.40;;;;;;5228738;28;20511;-39
2022/01/30 05:47:51;;;;;;;12.47;3.53;;;11.30;95.30;;;;;;5227839;28;20065;-36
2022/01/30 05:50:22;;;;;;;9.90;3.50;;;11.30;95.30;;;;;;5227876;28;20076;-36
2022/01/30 05:52:53;;;;;;;8.93;2.80;;;11.30;95.50;;;;;;5228723;28;20393;-36
2022/01/30 05:55:24;;;;;;;7.47;2.47;;;11.30;95.00;;;;;;5227502;28;20053;-38
2022/01/30 05:57:55;;;;;;;5.70;1.90;;;11.40;94.80;;;;;;5228079;28;20053;-37
2022/01/30 06:00:26;;;;;;;7.83;2.73;;;11.40;94.70;;;;;;5226906;28;20041;-29
2022/01/30 06:02:57;;;;;;;6.93;2.70;;;11.50;94.70;;;;;;5227869;28;20060;-36
2022/01/30 06:05:28;;;;;;;4.30;1.43;;;11.50;94.60;;;;;;5227518;28;20049;-36
2022/01/30 06:08:09;;;;;;;5.50;2.13;;;11.60;94.60;;;;;;5227952;28;20060;-34
2022/01/30 06:10:40;;;;;;;6.90;2.83;;;11.60;94.40;;;;;;5226880;28;20057;-37
2022/01/30 06:13:11;;;;;;;7.53;3.00;;;11.60;94.40;;;;;;5209687;28;20399;-34
2022/01/30 06:15:42;;;;;;;6.33;2.13;;;11.60;94.30;;;;;;5227836;28;20069;-35
2022/01/30 06:18:13;;;;;;;5.23;1.77;;;11.60;94.20;;;;;;5227846;28;20083;-29
2022/01/30 06:20:44;;;;;;;3.73;1.30;;;11.50;94.20;;;;;;5227897;28;20041;-30
2022/01/30 06:23:15;;;;;;;4.37;1.10;;;11.50;93.90;;;;;;5226447;28;20060;-31
2022/01/30 06:25:46;;;;;;;2.97;1.00;;;11.40;93.90;;;;;;5227621;28;20098;-32
2022/01/30 06:28:17;;;;;;;5.27;2.07;;;11.40;94.20;;;;;;5227650;28;20049;-41
2022/01/30 06:30:48;;;;;;;4.93;2.23;;;11.50;94.50;;;;;;5226591;28;20436;-31
2022/01/30 06:33:20;;;;;;;3.37;1.47;;;11.60;93.80;;;;;;5210477;28;20049;-41
2022/01/30 06:35:51;;;;;;;3.30;1.40;;;11.60;93.90;;;;;;5227685;28;20076;-33
2022/01/30 06:38:22;;;;;;;3.30;1.17;;;11.60;93.80;;;;;;5227755;28;20491;-38
2022/01/30 06:40:53;;;;;;;2.07;0.70;;;11.70;93.70;;;;;;5227270;28;20059;-33
2022/01/30 06:43:24;;;;;;;2.40;1.03;;;11.70;93.60;;;;;;5227699;28;20037;-36
2022/01/30 06:45:56;;;;;;;3.17;1.00;;;11.60;94.00;;;;;;5227879;28;20033;-33
2022/01/30 06:48:27;;;;;;;2.37;0.90;;;11.50;94.10;;;;;;5225947;28;20045;-38
2022/01/30 06:50:58;;;;;;;2.97;1.17;;;11.50;94.20;;;;;;5227321;28;20053;-31
2022/01/30 06:53:34;;;;;;;2.40;0.77;;;11.60;94.20;;;;;;5226398;28;20052;-35
2022/01/30 06:56:07;;;;;;;4.93;1.60;;;11.60;94.50;;;;;;5220752;28;20041;-34
2022/01/30 06:58:38;;;;;;;1.58;0.73;;;11.50;94.40;;;;;;5223166;28;20037;-32
2022/01/30 07:01:10;;;;;;;2.40;0.80;;;11.60;94.30;;;;;;5224508;28;20475;-33
2022/01/30 07:03:41;;;;;;;4.50;1.33;;;11.70;94.20;;;;;;5224927;28;20041;-40
2022/01/30 07:06:12;;;;;;;2.73;1.07;;;11.80;94.00;;;;;;5225177;28;20037;-37
2022/01/30 07:08:43;;;;;;;3.10;1.20;;;12.00;93.60;;;;;;5227878;28;20383;-33
2022/01/30 07:11:15;;;;;;;4.83;1.70;;;12.10;93.30;;;;;;5228370;28;20095;-37
2022/01/30 07:13:46;;;;;;;5.77;3.83;;;12.30;93.20;;;;;;5228554;28;20048;-30
2022/01/30 07:16:17;;;;;;;8.07;7.20;;;12.40;93.10;;;;;;5214002;28;20137;-34
2022/01/30 07:18:48;;;;;;;5.53;4.63;;;12.60;92.70;;;;;;5228707;28;20123;-31
2022/01/30 07:21:19;;;;;;;3.50;3.07;;;12.70;92.30;;;;;;5227661;28;20127;-29
2022/01/30 07:23:50;;;;;;;3.40;2.93;;;11.50;93.00;;;;;;5228762;28;20567;-29
2022/01/30 07:26:21;;;;;;;9.00;5.67;;;10.60;94.40;;;;;;5230209;28;20045;-37
2022/01/30 07:28:52;;;;;;;4.17;2.07;;;10.10;95.50;;;;;;5228860;28;20407;-34
2022/01/30 07:31:23;;;;;;;5.47;2.63;;;9.80;96.20;;;;;;5230678;28;20064;-35
2022/01/30 07:33:54;;;;;;;4.13;2.10;;;10.20;95.90;;;;;;5230686;28;20064;-31
2022/01/30 07:36:27;;;;;;;3.17;1.87;;;10.70;95.40;;;;;;5230493;28;20056;-32
2022/01/30 07:38:58;;;;;;;7.67;4.20;;;11.20;94.70;;;;;;5230508;28;20132;-31
2022/01/30 07:41:29;;;;;;;3.60;1.93;;;11.60;94.20;;;;;;5229403;28;20075;-31
2022/01/30 07:44:00;;;;;;;5.13;2.47;;;11.90;93.80;;;;;;5229745;28;20064;-30
2022/01/30 07:46:32;;;;;;;7.23;3.80;;;12.10;93.60;;;;;;5229691;28;20048;-32
2022/01/30 07:49:03;;;;;;;7.93;3.43;;;12.20;93.30;;;;;;5226829;28;20433;-32
2022/01/30 07:51:57;;;;;;;5.60;2.73;;;12.30;93.20;;;;;;5228222;28;20129;-31
2022/01/30 07:54:36;;;;;;;6.67;3.50;;;12.40;93.00;;;;;;5214615;28;20494;-33
2022/01/30 07:57:07;;;;;;;5.30;3.17;;;12.50;93.00;;;;;;5229350;28;20053;-32
2022/01/30 07:59:38;;;;;;;10.87;6.10;;;12.50;93.10;;;;;;5229365;28;20044;-30
2022/01/30 08:02:09;;;;;;;10.37;4.60;;;12.60;93.40;;;;;;5229198;28;20491;-30
2022/01/30 08:04:40;;;;;;;7.57;3.53;;;12.70;93.40;;;;;;5211823;28;20041;-31
2022/01/30 08:07:11;;;;;;;10.50;4.53;;;12.70;93.40;;;;;;5229182;28;20071;-30
2022/01/30 08:09:42;;;;;;;11.60;4.93;;;12.80;93.30;;;;;;5229294;28;20044;-32
2022/01/30 08:12:13;;;;;;;7.57;3.33;;;12.80;93.40;;;;;;5229843;28;20127;-32
2022/01/30 08:14:44;;;;;;;8.43;3.97;;;12.80;93.70;;;;;;5228459;28;20434;-30
2022/01/30 08:17:21;;;;;;;9.53;4.20;;;12.80;93.90;;;;;;5229875;28;20068;-29
2022/01/30 08:19:52;;;;;;;9.17;4.27;;;12.80;94.10;;;;;;5228798;28;20045;-34
2022/01/30 08:22:23;;;;;;;13.53;4.67;;;12.90;94.30;;;;;;5229157;28;20041;-35
2022/01/30 08:24:54;;;;;;;10.37;3.97;;;13.00;93.90;;;;;;5228913;28;20044;-31
2022/01/30 08:27:27;;;;;;;12.05;4.68;;;13.00;94.10;;;;;;5228800;28;20098;-30
2022/01/30 08:29:58;;;;;;;12.70;7.03;;;13.10;93.80;;;;;;5229045;28;20144;-32
2022/01/30 08:32:29;;;;;;;15.90;6.97;;;13.10;94.00;;;;;;5226157;28;20057;-35
2022/01/30 08:34:59;;;;;;;12.83;4.80;;;13.20;93.80;;;;;;5228721;28;20064;-37
2022/01/30 08:37:30;;;;;;;17.87;5.73;;;13.20;93.70;;;;;;5228510;28;20136;-33
2022/01/30 08:40:20;;;;;;;9.47;4.10;;;13.20;93.70;;;;;;5228987;28;20467;-30
2022/01/30 08:42:51;;;;;;;15.40;6.17;;;13.20;93.50;;;;;;5229761;28;20518;-29
2022/01/30 08:45:22;;;;;;;23.30;12.53;;;13.20;93.60;;;;;;5229333;28;20155;-31
2022/01/30 08:47:53;;;;;;;12.53;4.50;;;13.10;93.60;;;;;;5229031;28;20076;-31
2022/01/30 08:50:24;;;;;;;13.73;6.10;;;13.00;93.90;;;;;;5228627;28;20124;-30
2022/01/30 08:52:56;;;;;;;17.03;9.10;;;13.00;93.70;;;;;;5228792;28;20060;-30
2022/01/30 08:55:29;;;;;;;15.13;9.07;;;13.00;93.70;;;;;;5228959;28;20052;-30
2022/01/30 08:58:07;;;;;;;17.20;7.17;;;13.00;93.70;;;;;;5227998;28;20495;-32
2022/01/30 09:00:40;;;;;;;12.50;5.90;;;13.00;93.80;;;;;;5228233;28;20094;-30
2022/01/30 09:03:11;;;;;;;13.07;5.97;;;13.00;93.80;;;;;;5229007;28;20048;-32
2022/01/30 09:05:43;;;;;;;13.23;5.60;;;12.90;94.00;;;;;;5228676;28;20045;-29
2022/01/30 09:08:15;;;;;;;11.13;5.07;;;12.80;94.10;;;;;;5228801;28;20095;-31
2022/01/30 09:10:46;;;;;;;14.53;6.00;;;12.80;94.20;;;;;;5228170;28;20482;-30
2022/01/30 09:13:17;;;;;;;14.10;5.87;;;12.90;94.20;;;;;;5228409;28;20501;-30
2022/01/30 09:15:48;;;;;;;17.97;8.53;;;12.90;94.20;;;;;;5228935;28;20048;-30
2022/01/30 09:18:19;;;;;;;15.17;5.97;;;12.90;94.00;;;;;;5228360;28;20053;-30
2022/01/30 09:20:50;;;;;;;17.80;10.50;;;13.00;94.00;;;;;;5228663;28;20045;-30
2022/01/30 09:23:21;;;;;;;20.17;12.07;;;12.90;94.10;;;;;;5220273;28;20560;-33
2022/01/30 09:25:52;;;;;;;15.07;8.67;;;12.90;94.00;;;;;;5208016;28;20068;-32
2022/01/30 09:28:23;;;;;;;21.73;12.77;;;12.80;94.30;;;;;;5208214;28;20052;-31
2022/01/30 09:30:54;;;;;;;16.93;8.37;;;12.80;94.20;;;;;;5222520;28;20049;-33
2022/01/30 09:33:25;;;;;;;19.03;8.27;;;12.80;94.30;;;;;;5207828;28;20064;-30
2022/01/30 09:35:56;;;;;;;11.13;4.87;;;12.70;94.40;;;;;;5207697;28;20049;-31
2022/01/30 09:38:27;;;;;;;11.40;5.43;;;12.60;94.60;;;;;;5207711;28;20154;-29
2022/01/30 09:40:58;;;;;;;9.00;4.03;;;12.60;94.60;;;;;;5207849;28;20042;-32
2022/01/30 09:43:30;;;;;;;14.60;7.57;;;12.50;94.80;;;;;;5206598;28;20041;-31
2022/01/30 09:46:02;;;;;;;8.50;4.20;;;12.50;94.90;;;;;;5207546;28;20053;-31
2022/01/30 09:48:35;;;;;;;6.10;3.50;;;12.30;95.10;;;;;;5207235;28;20099;-32
2022/01/30 09:51:08;;;;;;;8.60;5.10;;;12.20;95.40;;;;;;5207439;28;20399;-30
2022/01/30 09:53:39;;;;;;;11.07;3.95;;;12.10;95.30;;;;;;5207469;28;20048;-34
2022/01/30 09:56:11;;;;;;;4.97;1.67;;;12.10;95.30;;;;;;5207419;28;20485;-33
2022/01/30 09:58:55;;;;;;;7.43;2.60;;;11.80;95.50;;;;;;5224446;28;20984;-30
2022/01/30 10:01:32;;;;;;;6.97;3.23;;;11.70;95.60;;;;;;5227335;28;20068;-33
2022/01/30 10:04:04;;;;;;;8.83;3.90;;;11.60;95.80;;;;;;5227548;28;20052;-31
2022/01/30 10:07:10;;;;;;;7.50;3.73;;;11.70;95.50;;;;;;5226578;28;20080;-31
2022/01/30 10:09:46;;;;;;;6.23;3.00;;;11.70;95.50;;;;;;5224619;28;20116;-31
2022/01/30 10:12:20;;;;;;;4.93;2.53;;;11.70;95.50;;;;;;5217152;28;20041;-33
2022/01/30 10:15:16;;;;;;;4.57;1.90;;;11.80;95.50;;;;;;5215079;28;20037;-32
2022/01/30 10:17:50;;;;;;;3.83;2.20;;;11.80;95.40;;;;;;5218715;28;20049;-31
2022/01/30 10:20:25;;;;;;;4.23;2.13;;;11.70;95.20;;;;;;5217262;28;20078;-36
2022/01/30 10:23:08;;;;;;;5.33;2.33;;;11.80;95.20;;;;;;5219805;28;20510;-33
2022/01/30 10:25:50;;;;;;;8.75;4.97;;;10.70;95.90;;;;;;5222485;28;20045;-33
2022/01/30 10:28:29;;;;;;;4.87;2.73;;;10.00;97.30;;;;;;5215425;28;20083;-37
2022/01/30 10:31:02;;;;;;;7.10;3.93;;;9.70;97.90;;;;;;5201566;28;20061;-32
2022/01/30 10:33:47;;;;;;;11.57;8.07;;;9.60;98.40;;;;;;5208253;28;20132;-33
2022/01/30 10:36:20;;;;;;;5.03;2.30;;;9.50;98.80;;;;;;5218874;28;20050;-36
2022/01/30 10:39:17;;;;;;;5.57;3.20;;;9.40;99.20;;;;;;5217895;28;20052;-36
2022/01/30 10:41:54;;;;;;;6.80;4.00;;;9.40;99.40;;;;;;5217833;28;20128;-38
2022/01/30 10:44:25;;;;;;;8.83;4.90;;;9.30;99.60;;;;;;5211094;28;20056;-39
2022/01/30 10:46:56;;;;;;;6.20;2.57;;;9.40;99.80;;;;;;5210754;28;20049;-37
2022/01/30 10:49:27;;;;;;;12.90;6.13;;;9.30;99.90;;;;;;5216051;28;20094;-35
2022/01/30 10:51:59;;;;;;;5.33;2.83;;;9.30;99.90;;;;;;5229478;28;20060;-35
2022/01/30 10:54:32;;;;;;;14.45;7.13;;;9.30;99.90;;;;;;5223725;28;20052;-33
2022/01/30 10:57:05;;;;;;;4.60;2.45;;;9.30;99.90;;;;;;5229752;28;20037;-36
2022/01/30 10:59:42;;;;;;;9.30;5.10;;;9.70;99.70;;;;;;5228026;28;20044;-35
2022/01/30 11:02:14;;;;;;;12.63;5.30;;;10.00;99.10;;;;;;5222201;28;20045;-33
2022/01/30 11:04:47;;;;;;;9.48;6.57;;;10.30;98.70;;;;;;5215675;28;20046;-35
2022/01/30 11:07:21;;;;;;;4.97;2.80;;;10.60;98.50;;;;;;5227584;28;20451;-39
2022/01/30 11:10:04;;;;;;;6.88;3.03;;;10.70;98.10;;;;;;5228475;28;20045;-36
2022/01/30 11:12:45;;;;;;;5.80;2.53;;;10.90;97.90;;;;;;5221364;28;20045;-40
2022/01/30 11:15:22;;;;;;;4.97;2.27;;;11.00;97.80;;;;;;5236123;28;20041;-34
2022/01/30 11:17:57;;;;;;;3.93;1.70;;;11.20;97.70;;;;;;5221837;28;20029;-37
2022/01/30 11:20:29;;;;;;;5.27;2.10;;;11.10;97.60;;;;;;5227627;28;20402;-32
2022/01/30 11:23:02;;;;;;;4.30;2.13;;;11.10;97.60;;;;;;5225754;28;20613;-31
2022/01/30 11:25:35;;;;;;;8.18;4.13;;;11.10;97.50;;;;;;5226881;28;20044;-31
2022/01/30 11:28:10;;;;;;;5.82;3.05;;;11.20;97.50;;;;;;5210601;28;20053;-33
2022/01/30 11:30:42;;;;;;;4.80;2.13;;;11.20;97.50;;;;;;5227732;28;20060;-31
2022/01/30 11:33:13;;;;;;;6.70;3.23;;;11.30;97.40;;;;;;5227433;28;20136;-33
2022/01/30 11:35:46;;;;;;;6.30;3.13;;;11.20;97.50;;;;;;5211597;28;20053;-38
2022/01/30 11:38:20;;;;;;;4.27;1.93;;;11.20;97.50;;;;;;5212238;28;20126;-34
2022/01/30 11:41:16;;;;;;;4.83;2.30;;;11.20;97.40;;;;;;5210971;28;20139;-31
2022/01/30 11:44:18;;;;;;;6.47;2.53;;;11.10;97.50;;;;;;5222592;28;20048;-33
2022/01/30 11:46:52;;;;;;;8.70;3.80;;;11.00;97.60;;;;;;5220316;28;20052;-32
2022/01/30 11:49:38;;;;;;;9.50;5.50;;;10.80;97.70;;;;;;5209281;28;20092;-32
2022/01/30 11:52:10;;;;;;;6.73;3.80;;;10.90;97.70;;;;;;5224123;28;20067;-39
2022/01/30 11:54:50;;;;;;;4.53;2.53;;;11.00;97.60;;;;;;5209553;28;20052;-34
2022/01/30 11:57:29;;;;;;;6.40;2.17;;;11.00;97.50;;;;;;5210254;28;20521;-36
2022/01/30 12:00:00;;;;;;;5.03;2.23;;;10.90;97.50;;;;;;5227142;28;20099;-37
2022/01/30 12:02:33;;;;;;;5.37;2.13;;;10.80;97.40;;;;;;5217445;28;20045;-36
2022/01/30 12:05:06;;;;;;;4.70;2.67;;;10.80;97.50;;;;;;5218224;28;20047;-35
2022/01/30 12:07:38;;;;;;;4.03;2.05;;;10.70;97.70;;;;;;5208367;28;20076;-37
2022/01/30 12:10:21;;;;;;;5.23;2.43;;;10.80;97.60;;;;;;5201773;28;20068;-32
2022/01/30 12:12:56;;;;;;;5.47;2.75;;;10.90;97.40;;;;;;5199640;28;20079;-37
2022/01/30 12:15:43;;;;;;;9.23;4.53;;;10.80;97.50;;;;;;5203433;28;20056;-38
2022/01/30 12:18:17;;;;;;;6.20;3.07;;;10.70;97.50;;;;;;5200889;28;20041;-32
2022/01/30 12:20:59;;;;;;;6.13;2.77;;;10.80;97.40;;;;;;5199861;28;20423;-32
2022/01/30 12:23:35;;;;;;;4.60;1.80;;;10.90;97.20;;;;;;5199405;28;20056;-38
2022/01/30 12:26:12;;;;;;;6.37;2.73;;;10.90;97.10;;;;;;5198111;28;20041;-42
2022/01/30 12:28:53;;;;;;;9.00;4.43;;;10.90;97.00;;;;;;5202189;28;20041;-38
2022/01/30 12:31:34;;;;;;;8.57;3.50;;;11.00;97.10;;;;;;5202906;28;20050;-38
2022/01/30 12:34:11;;;;;;;15.60;10.07;;;11.10;96.90;;;;;;5203280;28;20254;-34
2022/01/30 12:36:54;;;;;;;8.80;4.43;;;11.20;97.00;;;;;;5204118;28;20061;-33
2022/01/30 12:39:25;;;;;;;9.70;4.30;;;11.20;96.90;;;;;;5187697;28;20049;-37
2022/01/30 12:41:56;;;;;;;6.17;2.67;;;11.10;96.90;;;;;;5188044;28;20046;-32
2022/01/30 12:44:29;;;;;;;9.50;4.30;;;11.10;96.90;;;;;;5193132;28;20046;-32
2022/01/30 12:47:00;;;;;;;8.63;3.35;;;11.10;96.90;;;;;;5187782;28;20053;-31
2022/01/30 12:49:39;;;;;;;12.70;5.20;;;11.10;97.00;;;;;;5187684;28;20042;-33
2022/01/30 12:52:20;;;;;;;10.70;4.23;;;10.90;96.90;;;;;;5199974;28;20057;-33
2022/01/30 12:54:53;;;;;;;13.60;5.03;;;10.90;96.80;;;;;;5205894;28;20077;-31
2022/01/30 12:57:25;;;;;;;;;;;10.80;96.80;;;;;;5207810;28;20059;-32
2022/01/30 12:59:57;;;;;;;10.93;4.53;;;10.90;96.80;;;;;;5208197;28;19921;-34
2022/01/30 13:02:29;;;;;;;10.77;4.78;;;10.90;96.60;;;;;;5206735;28;20403;-32
2022/01/30 13:05:08;;;;;;;15.00;6.83;;;10.90;96.40;;;;;;5192461;28;20073;-31
2022/01/30 13:07:39;;;;;;;12.63;6.13;;;11.00;96.30;;;;;;5187727;28;20057;-34
2022/01/30 13:10:13;;;;;;;16.13;7.43;;;11.10;96.20;;;;;;5206197;28;20056;-33
2022/01/30 13:12:45;;;;;;;22.80;11.40;;;11.00;95.90;;;;;;5201233;28;20052;-32
2022/01/30 13:15:22;;;;;;;12.97;6.03;;;11.10;95.90;;;;;;5207880;28;20107;-36
2022/01/30 13:17:53;;;;;;;13.23;5.70;;;11.10;95.50;;;;;;5208270;28;20037;-32
2022/01/30 13:20:25;;;;;;;13.93;8.60;;;11.20;95.40;;;;;;5190421;28;20052;-32
2022/01/30 13:22:56;;;;;;;13.10;6.67;;;11.20;94.80;;;;;;5207269;28;20529;-31
2022/01/30 13:25:28;;;;;;;7.03;3.57;;;11.30;94.70;;;;;;5206871;28;20042;-30
2022/01/30 13:27:59;;;;;;;9.83;4.70;;;11.30;94.10;;;;;;5190628;28;20041;-32
2022/01/30 13:30:30;;;;;;;11.57;5.67;;;11.30;94.00;;;;;;5208317;28;20049;-32
2022/01/30 13:33:01;;;;;;;9.30;3.57;;;11.40;94.00;;;;;;5206795;28;20068;-33
2022/01/30 13:35:32;;;;;;;6.37;2.57;;;11.30;93.80;;;;;;5207715;28;20438;-31
2022/01/30 13:38:06;;;;;;;9.97;4.70;;;11.40;93.80;;;;;;5207820;28;20072;-31
2022/01/30 13:40:45;;;;;;;9.13;4.80;;;11.40;93.70;;;;;;5207661;28;20049;-31
2022/01/30 13:43:25;;;;;;;9.20;3.73;;;11.40;93.70;;;;;;5206817;28;20056;-31
2022/01/30 13:48:50;;;;;;;7.87;2.50;;;11.40;92.90;;;;;;5151542;28;20100;-31
2022/01/30 13:51:21;;;;;;;6.70;2.70;;;11.30;92.70;;;;;;5164362;28;20089;-31
2022/01/30 13:54:04;;;;;;;10.47;4.40;;;11.30;92.40;;;;;;5164507;28;20053;-35
2022/01/30 13:56:35;;;;;;;9.75;5.60;;;11.30;92.20;;;;;;5148583;28;20137;-31
2022/01/30 13:59:06;;;;;;;10.73;5.73;;;11.40;91.90;;;;;;5164361;28;20066;-34
2022/01/30 14:01:37;;;;;;;5.40;2.50;;;11.30;91.40;;;;;;5164510;28;20117;-33
2022/01/30 14:04:11;;;;;;;7.03;3.27;;;11.30;90.80;;;;;;5148186;28;20129;-36